createdAt,value
2019-01-26T00:01:46.110Z,96639.23
2019-01-26T00:04:16.638Z,96631.43
2019-01-26T00:06:47.392Z,96632.03
2019-01-26T00:09:17.920Z,96631.78
2019-01-26T00:11:48.409Z,96633.13
2019-01-26T00:14:18.948Z,96644.48
2019-01-26T00:16:49.467Z,96636.55
2019-01-26T00:19:20.170Z,96634.84
2019-01-26T00:21:50.793Z,96632.16
2019-01-26T00:24:21.285Z,96630.56
2019-01-26T00:26:51.867Z,96631.52
2019-01-26T00:29:22.357Z,96633.38
2019-01-26T00:31:52.806Z,96629.56
2019-01-26T00:34:23.685Z,96634.07
2019-01-26T00:36:54.195Z,96640.70
2019-01-26T00:39:24.763Z,96630.30
2019-01-26T00:41:55.327Z,96633.47
2019-01-26T00:44:25.916Z,96618.47
2019-01-26T00:46:57.103Z,96613.19
2019-01-26T00:49:27.981Z,96610.89
2019-01-26T00:51:58.556Z,96611.24
2019-01-26T00:54:29.179Z,96604.66
2019-01-26T00:56:59.778Z,96606.00
2019-01-26T00:59:30.556Z,96608.69
2019-01-26T01:02:01.230Z,96612.71
2019-01-26T01:04:31.951Z,96614.66
2019-01-26T01:07:02.482Z,96609.03
2019-01-26T01:09:33.034Z,96608.68
2019-01-26T01:12:03.641Z,96598.29
2019-01-26T01:14:35.089Z,96606.47
2019-01-26T01:17:05.804Z,96604.27
2019-01-26T01:19:36.428Z,96595.86
2019-01-26T01:22:06.981Z,96594.09
2019-01-26T01:24:37.805Z,96583.96
2019-01-26T01:27:08.396Z,96584.83
2019-01-26T01:29:39.339Z,96583.36
2019-01-26T01:32:09.855Z,96583.36
2019-01-26T01:34:40.446Z,96577.25
2019-01-26T01:37:11.188Z,96578.23
2019-01-26T01:39:41.722Z,96585.17
2019-01-26T01:42:12.609Z,96570.41
2019-01-26T01:44:43.162Z,96569.06
2019-01-26T01:47:13.917Z,96565.55
2019-01-26T01:49:44.622Z,96562.48
2019-01-26T01:52:15.273Z,96565.64
2019-01-26T01:54:45.806Z,96569.06
2019-01-26T01:57:16.566Z,96570.05
2019-01-26T01:59:47.319Z,96570.79
2019-01-26T02:02:17.890Z,96563.82
2019-01-26T02:04:48.352Z,96562.86
2019-01-26T02:07:19.002Z,96558.58
2019-01-26T02:09:49.642Z,96554.90
2019-01-26T02:12:20.256Z,96552.22
2019-01-26T02:14:50.863Z,96558.45
2019-01-26T02:17:21.317Z,96553.08
2019-01-26T02:19:52.219Z,96549.44
2019-01-26T02:22:22.825Z,96553.08
2019-01-26T02:24:53.391Z,96546.49
2019-01-26T02:27:25.048Z,96553.69
2019-01-26T02:29:55.962Z,96548.80
2019-01-26T02:32:27.596Z,96545.76
2019-01-26T02:34:58.174Z,96548.44
2019-01-26T02:37:28.695Z,96556.37
2019-01-26T02:39:59.334Z,96558.31
2019-01-26T02:42:29.896Z,96548.44
2019-01-26T02:45:00.523Z,96551.73
2019-01-26T02:47:31.234Z,96545.50
2019-01-26T02:50:02.119Z,96542.47
2019-01-26T02:52:32.587Z,96541.95
2019-01-26T02:55:03.122Z,96534.76
2019-01-26T02:57:33.960Z,96548.66
2019-01-26T03:00:05.890Z,96534.02
2019-01-26T03:02:36.578Z,96541.22
2019-01-26T03:05:07.484Z,96546.59
2019-01-26T03:07:38.076Z,96560.88
2019-01-26T03:10:10.007Z,96551.22
2019-01-26T03:12:40.511Z,96552.95
2019-01-26T03:15:12.874Z,96554.77
2019-01-26T03:17:43.382Z,96566.72
2019-01-26T03:20:15.309Z,96567.84
2019-01-26T03:22:45.977Z,96582.09
2019-01-26T03:25:16.921Z,96578.92
2019-01-26T03:27:47.879Z,96574.42
2019-01-26T03:30:20.663Z,96553.55
2019-01-26T03:32:51.416Z,96569.17
2019-01-26T03:35:22.322Z,96562.56
2019-01-26T03:37:52.891Z,96568.44
2019-01-26T03:40:24.633Z,96568.06
2019-01-26T03:42:55.297Z,96565.02
2019-01-26T03:45:25.754Z,96566.23
2019-01-26T03:47:56.242Z,96559.14
2019-01-26T03:50:26.707Z,96560.99
2019-01-26T03:52:57.209Z,96559.27
2019-01-26T03:55:27.867Z,96580.62
2019-01-26T03:57:58.400Z,96577.93
2019-01-26T04:00:28.981Z,96567.70
2019-01-26T04:02:59.548Z,96555.72
2019-01-26T04:05:30.061Z,96557.06
2019-01-26T04:08:00.720Z,96571.47
2019-01-26T04:10:31.340Z,96574.51
2019-01-26T04:13:01.819Z,96581.73
2019-01-26T04:15:32.462Z,96569.27
2019-01-26T04:18:03.293Z,96575.50
2019-01-26T04:20:34.804Z,96570.61
2019-01-26T04:23:05.556Z,96577.58
2019-01-26T04:25:36.209Z,96572.69
2019-01-26T04:28:06.772Z,96575.98
2019-01-26T04:30:37.226Z,96565.72
2019-01-26T04:33:08.874Z,96545.23
2019-01-26T04:35:39.805Z,96549.61
2019-01-26T04:38:10.399Z,96557.79
2019-01-26T04:40:41.137Z,96565.97
2019-01-26T04:43:11.782Z,96565.49
2019-01-26T04:45:42.315Z,96566.45
2019-01-26T04:48:12.877Z,96559.61
2019-01-26T04:50:44.051Z,96550.73
2019-01-26T04:53:14.618Z,96556.92
2019-01-26T04:55:45.263Z,96542.29
2019-01-26T04:58:15.876Z,96548.05
2019-01-26T05:00:46.319Z,96543.63
2019-01-26T05:03:20.041Z,96549.00
2019-01-26T05:05:50.570Z,96543.63
2019-01-26T05:08:21.166Z,96544.62
2019-01-26T05:10:52.030Z,96557.53
2019-01-26T05:13:22.673Z,96547.40
2019-01-26T05:15:53.276Z,96552.67
2019-01-26T05:18:23.818Z,96547.52
2019-01-26T05:20:54.303Z,96540.47
2019-01-26T05:23:24.967Z,96547.66
2019-01-26T05:25:55.922Z,96539.47
2019-01-26T05:28:26.617Z,96528.39
2019-01-26T05:30:57.172Z,96534.23
2019-01-26T05:33:27.860Z,96532.89
2019-01-26T05:35:58.366Z,96535.58
2019-01-26T05:38:28.967Z,96537.88
2019-01-26T05:40:59.467Z,96551.30
2019-01-26T05:43:30.045Z,96558.13
2019-01-26T05:46:00.792Z,96558.61
2019-01-26T05:48:31.316Z,96557.17
2019-01-26T05:51:02.103Z,96543.37
2019-01-26T05:53:32.522Z,96546.17
2019-01-26T05:56:03.031Z,96543.37
2019-01-26T05:58:33.716Z,96547.39
2019-01-26T06:01:04.452Z,96543.02
2019-01-26T06:03:35.434Z,96541.67
2019-01-26T06:06:06.398Z,96542.02
2019-01-26T06:08:37.041Z,96544.23
2019-01-26T06:11:07.562Z,96544.36
2019-01-26T06:13:38.037Z,96554.45
2019-01-26T06:16:11.148Z,96556.03
2019-01-26T06:18:44.187Z,96549.20
2019-01-26T06:21:14.865Z,96554.22
2019-01-26T06:23:46.835Z,96562.36
2019-01-26T06:26:17.574Z,96535.78
2019-01-26T06:28:48.183Z,96528.21
2019-01-26T06:31:18.938Z,96536.05
2019-01-26T06:33:49.557Z,96538.34
2019-01-26T06:36:20.174Z,96529.20
2019-01-26T06:38:50.831Z,96536.30
2019-01-26T06:41:21.548Z,96531.91
2019-01-26T06:43:52.136Z,96523.02
2019-01-26T06:46:23.025Z,96524.84
2019-01-26T06:48:57.354Z,96528.61
2019-01-26T06:51:28.191Z,96522.16
2019-01-26T06:54:00.240Z,96530.09
2019-01-26T06:56:31.202Z,96536.80
2019-01-26T06:59:02.559Z,96532.07
2019-01-26T07:01:33.149Z,96538.66
2019-01-26T07:04:04.019Z,96534.15
2019-01-26T07:06:45.779Z,96530.60
2019-01-26T07:09:16.349Z,96536.32
2019-01-26T07:11:47.351Z,96529.00
2019-01-26T07:14:17.988Z,96525.49
2019-01-26T07:16:49.011Z,96526.35
2019-01-26T07:19:19.595Z,96528.78
2019-01-26T07:21:50.277Z,96527.44
2019-01-26T07:24:20.881Z,96517.44
2019-01-26T07:26:51.483Z,96519.39
2019-01-26T07:29:22.326Z,96520.00
2019-01-26T07:31:53.112Z,96505.36
2019-01-26T07:34:23.844Z,96504.14
2019-01-26T07:36:54.798Z,96513.53
2019-01-26T07:39:25.343Z,96522.80
2019-01-26T07:41:57.274Z,96521.59
2019-01-26T07:44:27.756Z,96526.36
2019-01-26T07:46:58.471Z,96516.35
2019-01-26T07:49:29.136Z,96510.37
2019-01-26T07:52:00.038Z,96508.91
2019-01-26T07:54:30.840Z,96513.41
2019-01-26T07:57:01.913Z,96518.66
2019-01-26T07:59:32.715Z,96518.17
2019-01-26T08:02:03.131Z,96516.48
2019-01-26T08:04:33.649Z,96514.62
2019-01-26T08:07:04.578Z,96511.59
2019-01-26T08:09:35.243Z,96512.20
2019-01-26T08:12:06.058Z,96515.27
2019-01-26T08:14:36.824Z,96512.80
2019-01-26T08:17:07.379Z,96520.86
2019-01-26T08:19:38.253Z,96512.32
2019-01-26T08:22:08.709Z,96518.08
2019-01-26T08:24:39.737Z,96519.19
2019-01-26T08:27:10.524Z,96512.45
2019-01-26T08:29:41.381Z,96510.47
2019-01-26T08:32:12.085Z,96510.47
2019-01-26T08:34:42.862Z,96510.98
2019-01-26T08:37:13.640Z,96508.17
2019-01-26T08:39:44.276Z,96507.08
2019-01-26T08:42:14.938Z,96503.08
2019-01-26T08:44:45.465Z,96495.63
2019-01-26T08:47:20.377Z,96500.17
2019-01-26T08:49:50.957Z,96495.63
2019-01-26T08:52:21.542Z,96488.44
2019-01-26T08:54:52.008Z,96487.70
2019-01-26T08:57:22.560Z,96491.98
2019-01-26T08:59:53.043Z,96485.27
2019-01-26T09:02:31.718Z,96484.88
2019-01-26T09:05:02.446Z,96489.30
2019-01-26T09:07:32.897Z,96488.91
2019-01-26T09:10:03.542Z,96486.23
2019-01-26T09:12:34.065Z,96488.91
2019-01-26T09:15:04.739Z,96481.59
2019-01-26T09:17:35.360Z,96481.72
2019-01-26T09:20:07.578Z,96482.10
2019-01-26T09:22:38.334Z,96485.27
2019-01-26T09:25:09.215Z,96481.97
2019-01-26T09:27:40.144Z,96479.29
2019-01-26T09:30:10.795Z,96476.22
2019-01-26T09:32:42.135Z,96467.68
2019-01-26T09:35:13.662Z,96467.20
2019-01-26T09:37:44.252Z,96482.94
2019-01-26T09:40:14.854Z,96468.67
2019-01-26T09:42:45.399Z,96474.78
2019-01-26T09:45:16.499Z,96468.55
2019-01-26T09:47:47.297Z,96479.29
2019-01-26T09:50:17.723Z,96465.86
2019-01-26T09:52:48.487Z,96470.84
2019-01-26T09:55:19.170Z,96473.78
2019-01-26T09:57:49.648Z,96465.37
2019-01-26T10:00:23.107Z,96463.52
2019-01-26T10:02:53.730Z,96463.66
2019-01-26T10:05:24.796Z,96466.59
2019-01-26T10:07:55.491Z,96453.30
2019-01-26T10:10:26.194Z,96463.04
2019-01-26T10:12:56.764Z,96471.58
2019-01-26T10:15:28.496Z,96466.20
2019-01-26T10:17:59.095Z,96467.55
2019-01-26T10:20:31.457Z,96439.86
2019-01-26T10:23:02.493Z,96446.58
2019-01-26T10:25:33.082Z,96433.98
2019-01-26T10:28:03.638Z,96435.32
2019-01-26T10:30:42.642Z,96431.80
2019-01-26T10:33:14.622Z,96440.34
2019-01-26T10:36:16.413Z,96426.91
2019-01-26T10:39:01.180Z,96435.45
2019-01-26T10:41:50.699Z,96436.92
2019-01-26T10:44:25.016Z,96427.52
2019-01-26T10:46:55.649Z,96420.68
2019-01-26T10:49:28.441Z,96422.02
2019-01-26T10:52:01.815Z,96419.81
2019-01-26T10:54:34.048Z,96416.66
2019-01-26T10:57:05.006Z,96401.53
2019-01-26T10:59:35.785Z,96404.09
2019-01-26T11:02:06.928Z,96402.02
2019-01-26T11:04:37.625Z,96390.28
2019-01-26T11:07:08.247Z,96381.26
2019-01-26T11:09:38.897Z,96380.05
2019-01-26T11:12:09.910Z,96371.61
2019-01-26T11:14:40.810Z,96371.48
2019-01-26T11:17:11.346Z,96361.73
2019-01-26T11:19:42.430Z,96366.72
2019-01-26T11:22:13.055Z,96365.28
2019-01-26T11:24:43.570Z,96372.47
2019-01-26T11:27:14.510Z,96372.22
2019-01-26T11:29:44.957Z,96359.17
2019-01-26T11:32:16.017Z,96364.89
2019-01-26T11:34:46.779Z,96346.23
2019-01-26T11:37:17.598Z,96345.50
2019-01-26T11:39:54.858Z,96336.96
2019-01-26T11:42:25.508Z,96335.37
2019-01-26T11:45:23.872Z,96329.52
2019-01-26T11:47:55.000Z,96314.75
2019-01-26T11:50:31.112Z,96312.06
2019-01-26T11:53:01.620Z,96305.08
2019-01-26T11:55:38.562Z,96306.77
2019-01-26T11:58:09.229Z,96314.47
2019-01-26T12:00:59.564Z,96297.78
2019-01-26T12:03:38.860Z,96288.48
2019-01-26T12:06:13.214Z,96284.83
2019-01-26T12:08:43.780Z,96280.05
2019-01-26T12:11:14.253Z,96274.20
2019-01-26T12:13:45.053Z,96274.20
2019-01-26T12:16:15.639Z,96283.48
2019-01-26T12:19:05.367Z,96273.22
2019-01-26T12:21:36.115Z,96267.85
2019-01-26T12:24:06.608Z,96264.92
2019-01-26T12:26:37.243Z,96266.37
2019-01-26T12:29:08.131Z,96252.73
2019-01-26T12:31:38.838Z,96254.56
2019-01-26T12:34:09.555Z,96253.22
2019-01-26T12:36:40.769Z,96242.73
2019-01-26T12:39:12.423Z,96233.33
2019-01-26T12:41:43.088Z,96230.98
2019-01-26T12:44:13.957Z,96235.63
2019-01-26T12:46:44.922Z,96239.66
2019-01-26T12:49:15.608Z,96231.13
2019-01-26T12:51:46.152Z,96223.07
2019-01-26T12:54:16.627Z,96230.74
2019-01-26T12:56:47.254Z,96229.54
2019-01-26T12:59:17.926Z,96223.69
2019-01-26T13:01:48.543Z,96225.52
2019-01-26T13:04:18.990Z,96223.69
2019-01-26T13:06:49.552Z,96218.31
2019-01-26T13:09:20.460Z,96220.63
2019-01-26T13:11:51.033Z,96225.27
2019-01-26T13:14:21.530Z,96218.94
2019-01-26T13:16:52.376Z,96213.91
2019-01-26T13:19:23.860Z,96207.20
2019-01-26T13:21:54.624Z,96204.17
2019-01-26T13:24:25.239Z,96195.63
2019-01-26T13:26:55.995Z,96191.23
2019-01-26T13:29:26.783Z,96182.93
2019-01-26T13:31:57.832Z,96182.07
2019-01-26T13:34:28.423Z,96176.70
2019-01-26T13:36:59.089Z,96183.66
2019-01-26T13:39:29.879Z,96168.78
2019-01-26T13:42:00.551Z,96173.16
2019-01-26T13:44:31.415Z,96176.33
2019-01-26T13:47:02.961Z,96178.66
2019-01-26T13:49:33.633Z,96175.12
2019-01-26T13:52:04.435Z,96174.63
2019-01-26T13:54:35.412Z,96161.21
2019-01-26T13:57:06.106Z,96161.21
2019-01-26T13:59:36.701Z,96172.09
2019-01-26T14:02:07.358Z,96166.58
2019-01-26T14:04:40.175Z,96167.34
2019-01-26T14:07:10.978Z,96171.70
2019-01-26T14:09:41.616Z,96169.89
2019-01-26T14:12:12.187Z,96176.94
2019-01-26T14:14:43.074Z,96173.53
2019-01-26T14:17:13.981Z,96181.11
2019-01-26T14:19:51.028Z,96171.84
2019-01-26T14:22:17.350Z,96175.39
2019-01-26T14:24:48.397Z,96168.68
2019-01-26T14:27:19.131Z,96162.45
2019-01-26T14:29:51.087Z,96167.81
2019-01-26T14:32:21.760Z,96178.56
2019-01-26T14:34:52.602Z,96177.22
2019-01-26T14:37:23.154Z,96185.89
2019-01-26T14:39:53.772Z,96178.31
2019-01-26T14:42:24.249Z,96179.66
2019-01-26T14:44:54.886Z,96182.00
2019-01-26T14:47:25.397Z,96180.66
2019-01-26T14:49:58.540Z,96174.29
2019-01-26T14:52:29.112Z,96176.97
2019-01-26T14:54:59.705Z,96181.48
2019-01-26T14:57:30.478Z,96176.11
2019-01-26T15:00:00.981Z,96182.48
2019-01-26T15:02:37.335Z,96185.64
2019-01-26T15:05:08.056Z,96195.04
2019-01-26T15:07:38.930Z,96185.16
2019-01-26T15:10:10.410Z,96187.36
2019-01-26T15:12:41.317Z,96190.53
2019-01-26T15:15:12.283Z,96191.02
2019-01-26T15:17:42.825Z,96185.78
2019-01-26T15:20:16.674Z,96180.89
2019-01-26T15:23:04.628Z,96180.89
2019-01-26T15:25:35.755Z,96186.39
2019-01-26T15:28:08.130Z,96179.82
2019-01-26T15:30:41.428Z,96181.16
2019-01-26T15:33:12.359Z,96179.82
2019-01-26T15:35:43.261Z,96193.24
2019-01-26T15:38:14.345Z,96190.55
2019-01-26T15:40:45.105Z,96191.04
2019-01-26T15:43:16.146Z,96186.53
2019-01-26T15:45:48.887Z,96203.12
2019-01-26T15:48:19.595Z,96187.25
2019-01-26T15:50:50.195Z,96190.31
2019-01-26T15:53:21.023Z,96198.36
2019-01-26T15:55:51.678Z,96197.64
2019-01-26T15:58:22.688Z,96197.64
2019-01-26T16:00:53.393Z,96196.78
2019-01-26T16:03:23.942Z,96198.98
2019-01-26T16:05:54.449Z,96198.98
2019-01-26T16:08:25.705Z,96197.64
2019-01-26T16:10:56.404Z,96199.12
2019-01-26T16:13:28.214Z,96194.71
2019-01-26T16:15:59.205Z,96203.48
2019-01-26T16:18:30.417Z,96205.31
2019-01-26T16:21:01.342Z,96213.36
2019-01-26T16:23:32.545Z,96217.91
2019-01-26T16:26:03.201Z,96219.34
2019-01-26T16:28:33.964Z,96211.81
2019-01-26T16:31:05.007Z,96219.48
2019-01-26T16:33:36.007Z,96209.50
2019-01-26T16:36:15.930Z,96213.39
2019-01-26T16:38:49.449Z,96213.16
2019-01-26T16:41:20.331Z,96216.31
2019-01-26T16:43:51.438Z,96208.50
2019-01-26T16:46:23.000Z,96213.87
2019-01-26T16:48:53.988Z,96211.56
2019-01-26T16:51:25.647Z,96206.33
2019-01-26T16:53:56.516Z,96212.91
2019-01-26T16:56:27.830Z,96209.12
2019-01-26T16:58:59.225Z,96205.58
2019-01-26T17:01:31.345Z,96205.58
2019-01-26T17:04:02.107Z,96216.66
2019-01-26T17:06:32.971Z,96213.25
2019-01-26T17:09:04.942Z,96217.41
2019-01-26T17:11:36.052Z,96213.87
2019-01-26T17:14:06.920Z,96221.09
2019-01-26T17:16:37.440Z,96211.70
2019-01-26T17:19:08.326Z,96220.09
2019-01-26T17:21:40.067Z,96221.92
2019-01-26T17:24:11.046Z,96220.56
2019-01-26T17:26:41.722Z,96223.62
2019-01-26T17:29:12.496Z,96213.77
2019-01-26T17:31:43.556Z,96205.81
2019-01-26T17:34:14.190Z,96210.45
2019-01-26T17:36:46.030Z,96209.12
2019-01-26T17:39:16.479Z,96216.82
2019-01-26T17:41:47.260Z,96215.48
2019-01-26T17:44:18.028Z,96217.68
2019-01-26T17:46:48.409Z,96212.80
2019-01-26T17:49:18.883Z,96213.14
2019-01-26T17:51:49.271Z,96219.98
2019-01-26T17:54:19.548Z,96217.05
2019-01-26T17:56:49.874Z,96213.98
2019-01-26T17:59:20.426Z,96217.89
2019-01-26T18:01:50.783Z,96221.09
2019-01-26T18:04:21.357Z,96219.62
2019-01-26T18:06:52.466Z,96216.55
2019-01-26T18:09:23.268Z,96221.30
2019-01-26T18:11:54.054Z,96226.06
2019-01-26T18:14:24.847Z,96222.65
2019-01-26T18:16:55.398Z,96226.80
2019-01-26T18:19:26.177Z,96227.67
2019-01-26T18:21:57.499Z,96237.78
2019-01-26T18:24:28.645Z,96226.06
2019-01-26T18:26:59.392Z,96231.67
2019-01-26T18:29:30.804Z,96226.78
2019-01-26T18:32:01.677Z,96221.66
2019-01-26T18:34:35.061Z,96223.25
2019-01-26T18:37:06.966Z,96230.69
2019-01-26T18:39:37.355Z,96228.48
2019-01-26T18:42:07.779Z,96234.71
2019-01-26T18:44:38.158Z,96232.98
2019-01-26T18:47:09.720Z,96235.06
2019-01-26T18:49:40.061Z,96227.00
2019-01-26T18:52:10.425Z,96231.28
2019-01-26T18:54:40.814Z,96228.45
2019-01-26T18:57:11.099Z,96228.84
2019-01-26T18:59:42.108Z,96232.38
2019-01-26T19:02:13.126Z,96227.23
2019-01-26T19:04:57.242Z,96223.71
2019-01-26T19:07:27.752Z,96225.88
2019-01-26T19:09:58.251Z,96222.58
2019-01-26T19:12:29.017Z,96228.20
2019-01-26T19:15:04.720Z,96221.73
2019-01-26T19:17:36.977Z,96221.45
2019-01-26T19:20:07.687Z,96225.38
2019-01-26T19:22:38.991Z,96228.89
2019-01-26T19:25:11.695Z,96228.17
2019-01-26T19:27:42.742Z,96229.89
2019-01-26T19:30:15.765Z,96226.34
2019-01-26T19:32:47.573Z,96229.03
2019-01-26T19:35:18.215Z,96225.00
2019-01-26T19:37:49.634Z,96228.55
2019-01-26T19:40:21.366Z,96230.17
2019-01-26T19:42:52.563Z,96229.41
2019-01-26T19:45:23.697Z,96231.09
2019-01-26T19:47:54.277Z,96216.47
2019-01-26T19:50:25.401Z,96225.00
2019-01-26T19:52:56.325Z,96227.59
2019-01-26T19:55:27.120Z,96215.61
2019-01-26T19:57:58.719Z,96212.44
2019-01-26T20:00:29.372Z,96219.63
2019-01-26T20:03:00.044Z,96219.63
2019-01-26T20:05:30.755Z,96220.36
2019-01-26T20:08:03.687Z,96219.39
2019-01-26T20:11:06.716Z,96225.63
2019-01-26T20:13:53.604Z,96210.61
2019-01-26T20:16:25.047Z,96224.52
2019-01-26T20:18:56.271Z,96220.50
2019-01-26T20:21:27.003Z,96226.24
2019-01-26T20:23:57.598Z,96216.84
2019-01-26T20:26:28.087Z,96224.62
2019-01-26T20:28:58.705Z,96210.23
2019-01-26T20:31:29.222Z,96213.75
2019-01-26T20:33:59.924Z,96222.19
2019-01-26T20:36:30.722Z,96213.75
2019-01-26T20:39:01.369Z,96210.58
2019-01-26T20:41:37.429Z,96205.08
2019-01-26T20:44:07.873Z,96206.94
2019-01-26T20:46:38.342Z,96211.06
2019-01-26T20:49:10.565Z,96194.47
2019-01-26T20:51:41.089Z,96211.30
2019-01-26T20:54:11.985Z,96213.13
2019-01-26T20:56:43.728Z,96203.25
2019-01-26T20:59:14.493Z,96202.28
2019-01-26T21:01:45.787Z,96211.69
2019-01-26T21:04:17.583Z,96211.78
2019-01-26T21:06:48.261Z,96202.66
2019-01-26T21:09:18.849Z,96201.88
2019-01-26T21:11:49.490Z,96206.52
2019-01-26T21:14:20.198Z,96198.02
2019-01-26T21:16:50.929Z,96204.00
2019-01-26T21:19:21.452Z,96207.55
2019-01-26T21:21:52.107Z,96202.91
2019-01-26T21:24:23.018Z,96203.87
2019-01-26T21:26:53.997Z,96193.13
2019-01-26T21:29:24.492Z,96183.59
2019-01-26T21:31:55.349Z,96183.83
2019-01-26T21:34:25.766Z,96187.38
2019-01-26T21:36:56.207Z,96189.20
2019-01-26T21:39:26.742Z,96182.48
2019-01-26T21:41:58.154Z,96184.07
2019-01-26T21:44:29.151Z,96192.13
2019-01-26T21:46:59.661Z,96192.13
2019-01-26T21:49:30.445Z,96188.44
2019-01-26T21:52:00.978Z,96171.36
2019-01-26T21:54:38.344Z,96180.28
2019-01-26T21:57:08.830Z,96186.27
2019-01-26T21:59:39.365Z,96179.90
2019-01-26T22:02:09.965Z,96180.28
2019-01-26T22:04:40.562Z,96178.08
2019-01-26T22:07:12.847Z,96178.08
2019-01-26T22:09:43.522Z,96171.70
2019-01-26T22:12:17.289Z,96166.33
2019-01-26T22:14:47.822Z,96167.19
2019-01-26T22:17:22.348Z,96161.09
2019-01-26T22:19:52.881Z,96162.92
2019-01-26T22:22:26.550Z,96150.84
2019-01-26T22:24:57.595Z,96145.47
2019-01-26T22:27:28.757Z,96136.20
2019-01-26T22:29:59.399Z,96133.89
2019-01-26T22:32:29.788Z,96136.20
2019-01-26T22:35:00.330Z,96140.61
2019-01-26T22:37:30.958Z,96148.30
2019-01-26T22:40:01.586Z,96145.26
2019-01-26T22:42:33.193Z,96144.41
2019-01-26T22:45:04.222Z,96134.00
2019-01-26T22:47:34.624Z,96134.00
2019-01-26T22:50:06.156Z,96127.91
2019-01-26T22:52:36.654Z,96127.91
2019-01-26T22:55:10.390Z,96125.36
2019-01-26T22:57:41.261Z,96128.05
2019-01-26T23:00:26.208Z,96127.19
2019-01-26T23:02:58.183Z,96133.91
2019-01-26T23:05:49.651Z,96128.19
2019-01-26T23:08:25.261Z,96125.98
2019-01-26T23:11:44.843Z,96121.61
2019-01-26T23:15:08.381Z,96122.23
2019-01-26T23:18:04.483Z,96118.31
2019-01-26T23:20:59.982Z,96109.43
2019-01-26T23:24:21.714Z,96105.51
2019-01-26T23:27:28.379Z,96107.37
2019-01-26T23:30:36.860Z,96105.78
2019-01-26T23:33:07.676Z,96109.92
2019-01-26T23:35:38.285Z,96097.73
2019-01-26T23:38:08.881Z,96103.69
2019-01-26T23:40:39.945Z,96096.98
2019-01-26T23:43:13.083Z,96103.69
2019-01-26T23:45:43.725Z,96087.20
2019-01-26T23:48:14.169Z,96087.34
2019-01-26T23:50:44.517Z,96087.72
2019-01-26T23:53:15.171Z,96083.55
2019-01-26T23:55:45.836Z,96082.10
2019-01-26T23:58:18.683Z,96077.80
